Time;durP1;ratioP1;P1;durP2;ratioP2;P2;SDS_P1;SDS_P2;PMS_P1;PMS_P2;Temp;Humidity;BMP_temperature;BMP_pressure;BME280_temperature;BME280_humidity;BME280_pressure;Samples;Min_cycle;Max_cycle;Signal;HPM_P1;HPM_P2
2021/07/10 00:00:12;;;;;;;25.52;11.48;;;16.50;99.90;;;;;;5082097;28;20444;-71
2021/07/10 00:02:38;;;;;;;25.40;10.95;;;16.60;99.90;;;;;;5079344;28;20090;-71
2021/07/10 00:05:06;;;;;;;25.00;10.60;;;16.70;99.90;;;;;;5063072;28;20064;-70
2021/07/10 00:07:32;;;;;;;24.83;10.68;;;16.70;99.90;;;;;;5080172;28;20038;-71
2021/07/10 00:10:06;;;;;;;23.67;10.70;;;16.80;99.90;;;;;;5080773;28;20115;-71
2021/07/10 00:12:31;;;;;;;27.80;12.23;;;16.80;99.90;;;;;;5079688;28;20032;-70
2021/07/10 00:14:57;;;;;;;25.30;10.35;;;16.80;99.90;;;;;;5062254;28;20112;-71
2021/07/10 00:17:22;;;;;;;26.38;11.32;;;16.90;99.90;;;;;;5080628;28;20032;-70
2021/07/10 00:19:52;;;;;;;29.65;11.55;;;16.80;99.90;;;;;;5082758;28;20024;-71
2021/07/10 00:22:21;;;;;;;29.77;12.10;;;16.90;99.90;;;;;;5083027;28;20039;-70
2021/07/10 00:24:46;;;;;;;26.33;11.00;;;16.90;99.90;;;;;;5081570;28;20032;-71
2021/07/10 00:27:12;;;;;;;28.83;11.43;;;16.90;99.90;;;;;;5081955;28;20047;-70
2021/07/10 00:29:38;;;;;;;26.90;11.07;;;17.00;99.90;;;;;;5077806;28;20829;-70
2021/07/10 00:32:04;;;;;;;33.08;12.23;;;17.00;99.90;;;;;;5079183;28;20560;-71
2021/07/10 00:34:29;;;;;;;25.75;11.82;;;17.00;99.90;;;;;;5081657;28;20056;-70
2021/07/10 00:36:55;;;;;;;27.67;12.43;;;17.00;99.90;;;;;;5079900;28;20066;-71
2021/07/10 00:39:21;;;;;;;25.48;11.27;;;16.90;99.90;;;;;;5079202;28;20025;-71
2021/07/10 00:41:46;;;;;;;33.45;13.20;;;17.00;99.90;;;;;;5058591;28;20032;-71
2021/07/10 00:44:12;;;;;;;27.73;11.45;;;16.90;99.90;;;;;;5082401;28;20062;-73
2021/07/10 00:46:38;;;;;;;28.63;11.45;;;16.90;99.90;;;;;;5054239;28;20123;-70
2021/07/10 00:49:04;;;;;;;27.95;11.88;;;16.90;99.90;;;;;;5081609;28;20040;-70
2021/07/10 00:51:29;;;;;;;28.98;12.45;;;16.90;99.90;;;;;;5076904;28;20147;-71
2021/07/10 00:53:55;;;;;;;28.70;12.38;;;16.90;99.90;;;;;;5081770;28;20028;-71
2021/07/10 00:56:21;;;;;;;34.33;12.98;;;16.90;99.90;;;;;;5080892;28;20484;-70
2021/07/10 00:58:48;;;;;;;27.13;12.70;;;16.90;99.90;;;;;;5080889;28;20032;-70
2021/07/10 01:01:14;;;;;;;33.30;13.57;;;16.80;99.90;;;;;;5077530;28;20070;-70
2021/07/10 01:03:44;;;;;;;27.77;13.00;;;16.80;99.90;;;;;;5063150;28;20062;-71
2021/07/10 01:06:11;;;;;;;29.15;12.60;;;16.80;99.90;;;;;;5073839;28;20025;-70
2021/07/10 01:08:37;;;;;;;30.08;12.73;;;16.80;99.90;;;;;;5073240;28;20037;-69
2021/07/10 01:11:03;;;;;;;32.50;12.35;;;16.80;99.90;;;;;;5080550;28;20710;-71
2021/07/10 01:13:29;;;;;;;30.75;12.77;;;16.80;99.90;;;;;;5077805;28;20028;-70
2021/07/10 01:15:54;;;;;;;31.40;13.50;;;16.80;99.90;;;;;;5079297;28;20039;-71
2021/07/10 01:18:20;;;;;;;31.45;12.48;;;16.80;99.90;;;;;;5061291;28;20036;-72
2021/07/10 01:20:52;;;;;;;30.35;13.30;;;16.80;99.90;;;;;;5081816;28;20472;-71
2021/07/10 01:23:18;;;;;;;34.78;12.68;;;16.80;99.90;;;;;;5082965;28;20067;-71
2021/07/10 01:25:44;;;;;;;31.23;13.50;;;16.80;99.90;;;;;;5062079;28;20119;-71
2021/07/10 01:28:11;;;;;;;29.08;12.18;;;16.70;99.90;;;;;;5063125;28;20496;-71
2021/07/10 01:30:37;;;;;;;29.27;12.98;;;16.70;99.90;;;;;;5074674;28;20040;-71
2021/07/10 01:33:04;;;;;;;32.05;12.50;;;16.70;99.90;;;;;;5059784;28;20066;-71
2021/07/10 01:35:31;;;;;;;30.67;12.10;;;16.60;99.90;;;;;;5079657;28;20028;-70
2021/07/10 01:37:57;;;;;;;31.38;13.05;;;16.50;99.90;;;;;;5078372;28;20123;-70
2021/07/10 01:40:24;;;;;;;30.35;13.30;;;16.50;99.90;;;;;;5059073;28;20043;-72
2021/07/10 01:42:51;;;;;;;30.35;13.50;;;16.50;99.90;;;;;;5078306;28;20028;-70
2021/07/10 01:45:20;;;;;;;31.58;12.90;;;16.40;99.90;;;;;;5079342;28;20062;-71
2021/07/10 01:47:46;;;;;;;31.83;13.32;;;16.40;99.90;;;;;;5077382;28;20036;-70
2021/07/10 01:50:13;;;;;;;28.20;13.00;;;16.40;99.90;;;;;;5080334;28;20035;-70
2021/07/10 01:52:40;;;;;;;33.13;13.25;;;16.50;99.90;;;;;;5076416;28;20040;-70
2021/07/10 01:55:09;;;;;;;37.03;14.27;;;16.50;99.90;;;;;;5073437;28;20036;-71
2021/07/10 01:57:36;;;;;;;31.10;13.35;;;16.50;99.90;;;;;;5076152;28;20040;-70
2021/07/10 02:00:10;;;;;;;41.42;14.65;;;16.50;99.90;;;;;;5077486;28;20519;-70
2021/07/10 02:02:36;;;;;;;29.83;12.80;;;16.50;99.90;;;;;;5072853;28;20125;-70
2021/07/10 02:05:03;;;;;;;37.38;13.68;;;16.50;99.90;;;;;;5061934;28;20112;-71
2021/07/10 02:07:28;;;;;;;34.80;14.10;;;16.50;99.90;;;;;;5059593;28;20045;-70
2021/07/10 02:09:54;;;;;;;34.55;13.57;;;16.50;99.90;;;;;;5060958;28;20075;-71
2021/07/10 02:12:19;;;;;;;33.22;13.00;;;16.50;99.90;;;;;;5060180;28;20036;-70
2021/07/10 02:14:45;;;;;;;32.40;14.10;;;16.50;99.90;;;;;;5079842;28;20044;-71
2021/07/10 02:17:11;;;;;;;35.63;14.30;;;16.50;99.90;;;;;;5082982;28;20062;-71
2021/07/10 02:19:36;;;;;;;37.67;14.15;;;16.40;99.90;;;;;;5080334;28;20158;-71
2021/07/10 02:22:05;;;;;;;37.47;14.27;;;16.30;99.90;;;;;;5058597;28;20036;-71
2021/07/10 02:24:30;;;;;;;34.08;13.73;;;16.30;99.90;;;;;;5083816;28;20031;-71
2021/07/10 02:26:56;;;;;;;31.60;13.35;;;16.30;99.90;;;;;;5082834;28;20098;-71
2021/07/10 02:29:22;;;;;;;37.67;13.77;;;16.30;99.90;;;;;;5082135;28;20727;-71
2021/07/10 02:31:48;;;;;;;33.92;13.57;;;16.30;99.90;;;;;;5080723;28;20076;-70
2021/07/10 02:34:14;;;;;;;36.28;13.57;;;16.20;99.90;;;;;;5082217;28;20039;-71
2021/07/10 02:36:40;;;;;;;33.38;12.75;;;16.20;99.90;;;;;;5079951;28;20227;-71
2021/07/10 02:39:06;;;;;;;36.30;13.57;;;16.10;99.90;;;;;;5079917;28;20017;-70
2021/07/10 02:41:32;;;;;;;37.05;13.45;;;16.10;99.90;;;;;;5060397;28;20020;-70
2021/07/10 02:43:57;;;;;;;30.65;13.43;;;16.00;99.90;;;;;;5084709;28;20036;-70
2021/07/10 02:46:23;;;;;;;34.08;13.02;;;16.00;99.90;;;;;;5082961;28;20481;-69
2021/07/10 02:48:49;;;;;;;33.75;13.45;;;15.90;99.90;;;;;;5081788;28;20028;-70
2021/07/10 02:51:15;;;;;;;35.22;13.73;;;15.90;99.90;;;;;;5058458;28;20025;-70
2021/07/10 02:53:42;;;;;;;33.40;14.73;;;15.80;99.90;;;;;;5081002;28;20068;-69
2021/07/10 02:56:07;;;;;;;32.08;13.35;;;15.70;99.90;;;;;;5065571;28;20071;-69
2021/07/10 02:58:33;;;;;;;32.45;12.80;;;15.70;99.90;;;;;;5080853;28;20536;-70
2021/07/10 03:00:58;;;;;;;32.13;13.07;;;15.60;99.90;;;;;;5079538;28;20051;-70
2021/07/10 03:03:24;;;;;;;36.25;13.57;;;15.60;99.90;;;;;;5063185;28;20708;-70
2021/07/10 03:05:50;;;;;;;37.13;13.88;;;15.60;99.90;;;;;;5066541;28;20043;-69
2021/07/10 03:08:20;;;;;;;32.20;13.40;;;15.50;99.90;;;;;;5078635;28;20025;-69
2021/07/10 03:10:47;;;;;;;34.10;13.93;;;15.50;99.90;;;;;;5086334;28;20028;-70
2021/07/10 03:13:13;;;;;;;38.15;15.02;;;15.50;99.90;;;;;;5081687;28;20063;-70
2021/07/10 03:15:39;;;;;;;35.65;13.60;;;15.50;99.90;;;;;;5064694;28;20055;-69
2021/07/10 03:18:05;;;;;;;36.13;14.30;;;15.50;99.90;;;;;;5061654;28;20051;-70
2021/07/10 03:20:31;;;;;;;42.00;15.23;;;15.50;99.90;;;;;;5083676;28;20035;-70
2021/07/10 03:22:56;;;;;;;34.45;15.05;;;15.50;99.90;;;;;;5079940;28;20400;-69
2021/07/10 03:25:22;;;;;;;34.50;13.98;;;15.40;99.90;;;;;;5082178;28;20130;-69
2021/07/10 03:27:49;;;;;;;41.03;15.48;;;15.40;99.90;;;;;;5079173;28;20488;-70
2021/07/10 03:30:17;;;;;;;43.65;15.70;;;15.50;99.90;;;;;;5082149;28;20036;-69
2021/07/10 03:32:43;;;;;;;40.47;15.55;;;15.40;99.90;;;;;;5077310;28;20041;-70
2021/07/10 03:35:11;;;;;;;38.08;15.60;;;15.50;99.90;;;;;;5081768;28;20024;-70
2021/07/10 03:37:37;;;;;;;44.58;15.38;;;15.50;99.90;;;;;;5080623;28;20435;-70
2021/07/10 03:40:09;;;;;;;34.38;14.98;;;15.40;99.90;;;;;;5062658;28;20459;-70
2021/07/10 03:42:35;;;;;;;36.25;15.60;;;15.40;99.90;;;;;;5078198;28;20041;-70
2021/07/10 03:45:00;;;;;;;39.05;14.55;;;15.40;99.90;;;;;;5081279;28;20036;-70
2021/07/10 03:47:26;;;;;;;40.92;16.17;;;15.40;99.90;;;;;;5079741;28;20095;-70
2021/07/10 03:49:53;;;;;;;35.60;15.20;;;15.40;99.90;;;;;;5082007;28;20044;-70
2021/07/10 03:52:18;;;;;;;34.97;14.43;;;15.30;99.90;;;;;;5078975;28;20044;-69
2021/07/10 03:54:46;;;;;;;42.00;15.82;;;15.40;99.90;;;;;;5079705;28;20400;-70
2021/07/10 03:57:11;;;;;;;35.50;14.63;;;15.40;99.90;;;;;;5078966;28;20032;-69
2021/07/10 03:59:37;;;;;;;39.03;14.63;;;15.40;99.90;;;;;;5083331;28;20047;-70
2021/07/10 04:02:03;;;;;;;35.47;15.60;;;15.40;99.90;;;;;;5078762;28;20182;-69
2021/07/10 04:04:28;;;;;;;38.95;16.55;;;15.40;99.90;;;;;;5083088;28;20075;-70
2021/07/10 04:06:54;;;;;;;45.70;15.52;;;15.40;99.90;;;;;;5082213;28;20024;-70
2021/07/10 04:09:19;;;;;;;43.85;17.75;;;15.50;99.90;;;;;;5082701;28;20438;-70
2021/07/10 04:11:45;;;;;;;41.17;17.13;;;15.50;99.90;;;;;;5080469;28;20054;-70
2021/07/10 04:14:11;;;;;;;39.50;16.20;;;15.60;99.90;;;;;;5083013;28;20032;-70
2021/07/10 04:16:36;;;;;;;41.13;17.83;;;15.70;99.90;;;;;;5079348;28;20185;-70
2021/07/10 04:19:02;;;;;;;40.47;16.95;;;15.80;99.90;;;;;;5060101;28;20028;-70
2021/07/10 04:21:27;;;;;;;39.03;16.02;;;15.80;99.90;;;;;;5082311;28;20519;-69
2021/07/10 04:23:53;;;;;;;44.13;17.23;;;15.80;99.90;;;;;;5079280;28;20043;-70
2021/07/10 04:26:19;;;;;;;44.35;16.65;;;15.90;99.90;;;;;;5062870;28;20032;-70
2021/07/10 04:28:44;;;;;;;41.55;16.10;;;16.00;99.90;;;;;;5082944;28;20039;-70
2021/07/10 04:31:10;;;;;;;41.65;16.67;;;16.00;99.90;;;;;;5081243;28;20048;-70
2021/07/10 04:33:36;;;;;;;44.10;16.38;;;16.10;99.90;;;;;;5073627;28;20555;-70
2021/07/10 04:36:02;;;;;;;37.00;17.08;;;16.10;99.90;;;;;;5076018;28;20051;-70
2021/07/10 04:38:27;;;;;;;40.33;16.10;;;16.20;99.90;;;;;;5082011;28;20035;-69
2021/07/10 04:40:53;;;;;;;44.25;18.38;;;16.30;99.90;;;;;;5066295;28;20035;-69
2021/07/10 04:43:18;;;;;;;41.80;17.10;;;16.30;99.90;;;;;;5075664;28;20036;-69
2021/07/10 04:45:44;;;;;;;33.92;15.18;;;16.40;99.90;;;;;;5081523;28;20044;-70
2021/07/10 04:48:10;;;;;;;45.33;17.20;;;16.50;99.90;;;;;;5078603;28;20039;-70
2021/07/10 04:50:36;;;;;;;45.85;18.20;;;16.50;99.90;;;;;;5079132;28;20040;-70
2021/07/10 04:53:02;;;;;;;41.28;17.67;;;16.60;99.90;;;;;;5057181;28;20032;-69
2021/07/10 04:55:27;;;;;;;35.75;16.25;;;16.70;99.90;;;;;;5060009;28;20037;-68
2021/07/10 04:57:53;;;;;;;39.28;15.98;;;16.70;99.90;;;;;;5067755;28;20028;-69
2021/07/10 05:00:19;;;;;;;39.00;16.55;;;16.80;99.90;;;;;;5076866;28;20492;-70
2021/07/10 05:02:45;;;;;;;40.38;16.80;;;16.80;99.90;;;;;;5083565;28;20036;-70
2021/07/10 05:05:12;;;;;;;43.42;16.55;;;16.90;99.90;;;;;;5055307;28;20037;-70
2021/07/10 05:07:37;;;;;;;40.30;16.60;;;17.00;99.90;;;;;;5071096;28;20341;-69
2021/07/10 05:10:05;;;;;;;34.40;16.23;;;17.10;99.90;;;;;;5085360;28;20185;-70
2021/07/10 05:12:30;;;;;;;36.40;16.83;;;17.20;99.90;;;;;;5085466;28;20060;-69
2021/07/10 05:14:56;;;;;;;35.08;15.77;;;17.20;99.90;;;;;;5081682;28;20109;-70
2021/07/10 05:17:22;;;;;;;37.95;16.33;;;17.30;99.90;;;;;;5080628;28;20029;-69
2021/07/10 05:19:48;;;;;;;38.60;16.33;;;17.40;99.90;;;;;;5059999;28;20596;-69
2021/07/10 05:22:15;;;;;;;32.78;14.18;;;17.50;99.90;;;;;;5079312;28;20139;-69
2021/07/10 05:24:40;;;;;;;34.45;15.90;;;17.60;99.90;;;;;;5053451;28;20377;-71
2021/07/10 05:27:06;;;;;;;32.97;15.60;;;17.60;99.90;;;;;;5079095;28;20031;-70
2021/07/10 05:29:33;;;;;;;30.45;15.27;;;17.70;99.90;;;;;;5081709;28;20127;-70
2021/07/10 05:31:58;;;;;;;32.95;15.07;;;17.70;99.90;;;;;;5082472;28;20110;-70
2021/07/10 05:34:24;;;;;;;29.42;13.82;;;17.80;99.90;;;;;;5081021;28;20635;-70
2021/07/10 05:36:50;;;;;;;27.88;12.70;;;17.90;99.90;;;;;;5073403;28;20554;-72
2021/07/10 05:39:15;;;;;;;26.60;13.60;;;18.00;99.90;;;;;;5055243;28;20099;-72
2021/07/10 05:41:41;;;;;;;25.00;12.32;;;18.30;99.90;;;;;;5074985;28;20036;-69
2021/07/10 05:44:07;;;;;;;27.50;12.55;;;18.60;99.90;;;;;;5067907;28;20036;-72
2021/07/10 05:46:33;;;;;;;22.73;11.05;;;18.80;99.90;;;;;;5057684;28;20043;-72
2021/07/10 05:48:59;;;;;;;25.77;11.98;;;19.00;99.90;;;;;;5078102;28;20442;-69
2021/07/10 05:51:25;;;;;;;28.25;11.10;;;19.10;99.90;;;;;;5080870;28;20565;-72
2021/07/10 05:53:50;;;;;;;25.55;12.27;;;19.30;99.90;;;;;;5069302;28;20458;-71
2021/07/10 05:56:16;;;;;;;30.55;13.13;;;19.30;99.90;;;;;;5075037;28;20028;-71
2021/07/10 05:58:41;;;;;;;27.75;12.75;;;19.30;99.90;;;;;;5080752;28;20500;-69
2021/07/10 06:01:07;;;;;;;24.95;11.63;;;19.40;99.90;;;;;;5083549;28;20206;-69
2021/07/10 06:03:32;;;;;;;31.13;12.98;;;19.40;99.90;;;;;;5085428;28;20089;-69
2021/07/10 06:05:58;;;;;;;30.42;12.60;;;19.50;99.90;;;;;;5081835;28;20480;-72
2021/07/10 06:08:24;;;;;;;23.35;11.38;;;19.50;99.90;;;;;;5076327;28;20032;-71
2021/07/10 06:10:49;;;;;;;29.17;12.75;;;19.50;99.90;;;;;;5061684;28;20631;-70
2021/07/10 06:13:15;;;;;;;34.13;14.40;;;19.50;99.90;;;;;;5062363;28;20640;-71
2021/07/10 06:15:41;;;;;;;29.85;14.10;;;19.60;99.90;;;;;;5063544;28;20036;-70
2021/07/10 06:18:07;;;;;;;28.23;14.02;;;19.70;99.90;;;;;;5077208;28;20028;-70
2021/07/10 06:20:34;;;;;;;31.23;14.57;;;19.60;99.90;;;;;;5076710;28;20399;-71
2021/07/10 06:23:00;;;;;;;28.90;13.80;;;19.60;99.90;;;;;;5068132;28;20044;-71
2021/07/10 06:25:26;;;;;;;24.02;12.15;;;19.70;99.90;;;;;;5070033;28;20031;-72
2021/07/10 06:27:52;;;;;;;27.27;12.77;;;19.70;99.90;;;;;;5070313;28;20764;-71
2021/07/10 06:30:19;;;;;;;23.42;11.98;;;19.70;99.90;;;;;;5069532;28;20823;-72
2021/07/10 06:32:46;;;;;;;23.10;11.77;;;19.80;99.90;;;;;;5059463;28;20391;-72
2021/07/10 06:35:12;;;;;;;27.90;12.27;;;19.90;99.90;;;;;;5050565;28;20087;-71
2021/07/10 06:37:38;;;;;;;23.85;12.80;;;20.00;99.90;;;;;;5070322;28;20036;-71
2021/07/10 06:40:13;;;;;;;27.15;12.57;;;20.10;99.90;;;;;;5072049;28;20055;-71
2021/07/10 06:42:38;;;;;;;24.23;12.43;;;20.30;99.90;;;;;;5072227;28;20031;-72
2021/07/10 06:45:07;;;;;;;27.23;13.23;;;20.40;99.90;;;;;;5072878;28;20408;-70
2021/07/10 06:47:32;;;;;;;26.48;12.98;;;20.50;99.90;;;;;;5071223;28;20054;-73
2021/07/10 06:49:59;;;;;;;23.98;12.80;;;20.60;99.90;;;;;;5059030;28;20501;-71
2021/07/10 06:52:24;;;;;;;22.60;11.07;;;20.70;99.90;;;;;;5072417;28;20033;-72
2021/07/10 06:54:50;;;;;;;22.95;12.77;;;20.90;99.90;;;;;;5083147;28;20093;-71
2021/07/10 06:57:16;;;;;;;24.35;11.40;;;21.10;99.90;;;;;;5076875;28;20036;-70
2021/07/10 06:59:41;;;;;;;23.40;11.90;;;21.30;99.90;;;;;;5081480;28;20680;-72
2021/07/10 07:02:07;;;;;;;23.35;11.77;;;21.40;99.90;;;;;;5080802;28;20079;-70
2021/07/10 07:04:32;;;;;;;22.05;11.40;;;21.80;99.90;;;;;;5075434;28;20055;-69
2021/07/10 07:06:58;;;;;;;21.23;10.82;;;22.20;99.90;;;;;;5081761;28;20085;-71
2021/07/10 07:09:23;;;;;;;21.85;10.90;;;22.70;99.90;;;;;;5079446;28;20450;-70
2021/07/10 07:11:51;;;;;;;20.95;10.93;;;22.80;99.90;;;;;;5053845;28;20052;-71
2021/07/10 07:14:18;;;;;;;23.38;11.18;;;22.90;99.90;;;;;;5076965;28;20062;-72
2021/07/10 07:16:43;;;;;;;20.48;8.88;;;22.90;99.90;;;;;;5077995;28;20132;-69
2021/07/10 07:19:09;;;;;;;24.90;10.75;;;23.00;99.90;;;;;;5070681;28;20108;-69
2021/07/10 07:21:34;;;;;;;19.65;9.93;;;23.10;99.90;;;;;;5070404;28;20082;-69
2021/07/10 07:24:00;;;;;;;18.00;9.32;;;23.20;99.90;;;;;;5075773;28;20045;-70
2021/07/10 07:26:26;;;;;;;16.35;8.90;;;23.00;99.90;;;;;;5086612;28;20024;-70
2021/07/10 07:28:51;;;;;;;21.92;10.20;;;23.10;99.90;;;;;;5089962;28;20077;-70
2021/07/10 07:31:17;;;;;;;18.13;9.77;;;23.10;99.90;;;;;;5070801;28;20052;-71
2021/07/10 07:33:43;;;;;;;18.17;9.05;;;22.90;99.90;;;;;;5069141;28;20119;-68
2021/07/10 07:36:09;;;;;;;20.98;8.40;;;22.60;99.90;;;;;;5069745;28;20153;-71
2021/07/10 07:38:36;;;;;;;14.63;8.35;;;22.50;99.90;;;;;;5053805;28;20044;-72
2021/07/10 07:41:02;;;;;;;15.40;8.45;;;22.50;99.90;;;;;;5072769;28;20063;-71
2021/07/10 07:43:28;;;;;;;17.15;8.38;;;22.60;99.90;;;;;;5067220;28;20032;-71
2021/07/10 07:45:54;;;;;;;20.48;9.75;;;22.50;99.90;;;;;;5068756;28;20400;-70
2021/07/10 07:48:19;;;;;;;17.75;9.60;;;22.70;99.90;;;;;;5069726;28;20032;-71
2021/07/10 07:50:46;;;;;;;21.73;10.25;;;22.70;99.90;;;;;;5068737;28;20516;-71
2021/07/10 07:53:13;;;;;;;19.35;9.50;;;22.70;99.90;;;;;;5069400;28;20047;-71
2021/07/10 07:55:39;;;;;;;19.80;9.50;;;22.90;99.90;;;;;;5069571;28;20047;-71
2021/07/10 07:58:04;;;;;;;18.85;10.20;;;23.30;99.90;;;;;;5071207;28;20040;-72
2021/07/10 08:00:30;;;;;;;21.60;10.27;;;23.50;99.90;;;;;;5067732;28;20033;-73
2021/07/10 08:02:56;;;;;;;20.25;10.07;;;23.80;99.90;;;;;;5069414;28;20041;-72
2021/07/10 08:05:22;;;;;;;23.30;10.57;;;24.00;99.90;;;;;;5074285;28;20033;-71
2021/07/10 08:07:48;;;;;;;18.40;9.18;;;24.10;99.90;;;;;;5068483;28;20036;-72
2021/07/10 08:10:16;;;;;;;17.63;9.05;;;24.20;99.90;;;;;;5043808;28;20022;-70
2021/07/10 08:12:44;;;;;;;15.82;8.68;;;24.70;99.90;;;;;;5059786;28;20035;-71
2021/07/10 08:15:13;;;;;;;19.33;10.20;;;24.90;99.90;;;;;;5088803;28;20028;-69
2021/07/10 08:17:38;;;;;;;23.92;11.32;;;24.60;99.90;;;;;;5077610;28;20048;-72
2021/07/10 08:20:06;;;;;;;22.67;11.68;;;24.80;99.90;;;;;;5078009;28;20028;-70
2021/07/10 08:22:32;;;;;;;20.10;9.90;;;24.80;99.90;;;;;;5088582;28;20055;-72
2021/07/10 08:24:57;;;;;;;18.08;9.98;;;24.80;99.80;;;;;;5069279;28;20803;-71
2021/07/10 08:27:23;;;;;;;17.48;10.15;;;24.50;99.90;;;;;;5069891;28;20046;-72
2021/07/10 08:29:49;;;;;;;19.15;10.02;;;24.10;99.90;;;;;;5053661;28;20567;-72
2021/07/10 08:32:14;;;;;;;20.23;11.13;;;23.80;99.90;;;;;;5075574;28;20112;-72
2021/07/10 08:34:40;;;;;;;21.83;10.23;;;23.40;99.90;;;;;;5064307;28;20055;-70
2021/07/10 08:37:06;;;;;;;18.60;9.07;;;23.00;99.90;;;;;;5067933;28;20127;-71
2021/07/10 08:39:32;;;;;;;16.77;8.82;;;22.90;99.90;;;;;;5073244;28;20024;-70
2021/07/10 08:41:58;;;;;;;21.17;10.02;;;22.90;99.90;;;;;;5068722;28;20051;-72
2021/07/10 08:44:25;;;;;;;18.98;10.63;;;22.90;99.90;;;;;;5073009;28;20033;-71
2021/07/10 08:46:52;;;;;;;20.20;10.65;;;23.00;99.90;;;;;;5071559;28;20108;-72
2021/07/10 08:49:18;;;;;;;19.65;9.55;;;23.30;99.90;;;;;;5064411;28;20024;-71
2021/07/10 08:51:47;;;;;;;19.20;11.40;;;23.50;99.90;;;;;;5072554;28;20025;-71
2021/07/10 08:54:13;;;;;;;18.27;10.25;;;23.80;99.90;;;;;;5059297;28;20032;-71
2021/07/10 08:56:45;;;;;;;21.95;11.57;;;24.00;99.90;;;;;;5083593;28;20025;-71
2021/07/10 08:59:12;;;;;;;23.33;11.70;;;24.20;99.90;;;;;;5080300;28;20035;-71
2021/07/10 09:01:38;;;;;;;18.00;10.68;;;24.30;99.90;;;;;;5070596;28;20059;-71
2021/07/10 09:04:05;;;;;;;21.80;12.52;;;24.10;99.90;;;;;;5082172;28;20039;-71
2021/07/10 09:06:31;;;;;;;20.45;10.57;;;24.20;99.90;;;;;;5085772;28;20028;-71
2021/07/10 09:08:56;;;;;;;19.13;10.77;;;24.00;99.90;;;;;;5087132;28;20035;-71
2021/07/10 09:11:23;;;;;;;23.15;11.73;;;24.00;99.90;;;;;;5088138;28;20054;-72
2021/07/10 09:13:54;;;;;;;21.77;12.23;;;24.00;99.90;;;;;;5086053;28;20043;-70
2021/07/10 09:16:28;;;;;;;21.95;12.18;;;24.00;99.90;;;;;;5086978;28;20036;-72
2021/07/10 09:19:05;;;;;;;20.65;11.02;;;24.10;99.90;;;;;;5083854;28;20043;-71
2021/07/10 09:21:42;;;;;;;21.20;12.25;;;24.00;99.90;;;;;;5087558;28;20036;-72
2021/07/10 09:24:23;;;;;;;16.95;9.70;;;24.00;99.90;;;;;;5063031;28;20033;-73
2021/07/10 09:26:49;;;;;;;;;;;23.90;99.90;;;;;;5068335;28;20097;-71
2021/07/10 09:29:20;;;;;;;14.50;8.18;;;23.90;99.90;;;;;;5084813;28;19923;-71
2021/07/10 09:31:57;;;;;;;18.90;9.35;;;23.90;99.90;;;;;;5084623;28;20052;-70
2021/07/10 09:34:35;;;;;;;14.90;8.93;;;23.90;99.90;;;;;;5082461;28;20040;-70
2021/07/10 09:37:05;;;;;;;15.13;8.77;;;24.00;99.90;;;;;;5084267;28;20036;-70
2021/07/10 09:39:33;;;;;;;15.25;9.32;;;24.00;99.90;;;;;;5083388;28;20331;-70
2021/07/10 09:42:00;;;;;;;16.00;9.23;;;24.10;99.90;;;;;;5068182;28;20041;-69
2021/07/10 09:44:39;;;;;;;14.65;9.55;;;24.20;99.30;;;;;;5084149;28;20028;-70
2021/07/10 09:47:05;;;;;;;15.27;8.75;;;24.00;99.90;;;;;;5087042;28;20062;-70
2021/07/10 09:49:32;;;;;;;16.02;9.60;;;23.90;99.90;;;;;;5068510;28;20035;-71
2021/07/10 09:52:01;;;;;;;17.50;8.80;;;23.80;99.90;;;;;;5073859;28;20138;-70
2021/07/10 09:54:54;;;;;;;15.77;8.80;;;23.90;99.90;;;;;;5078075;28;20032;-70
2021/07/10 09:57:28;;;;;;;15.50;9.27;;;24.00;99.90;;;;;;5080719;28;20039;-70
2021/07/10 10:00:00;;;;;;;14.45;8.40;;;23.90;99.90;;;;;;5066939;28;20029;-69
2021/07/10 10:02:29;;;;;;;15.35;8.40;;;23.90;99.90;;;;;;5083571;28;20115;-70
2021/07/10 10:05:07;;;;;;;11.70;7.18;;;24.00;99.90;;;;;;5084026;28;20024;-70
2021/07/10 10:07:44;;;;;;;14.35;7.97;;;24.20;99.90;;;;;;5080681;28;20047;-69
2021/07/10 10:10:16;;;;;;;13.63;7.97;;;24.20;99.90;;;;;;5078776;28;20043;-71
2021/07/10 10:12:42;;;;;;;14.20;7.70;;;24.20;99.90;;;;;;5061275;28;20047;-71
2021/07/10 10:15:09;;;;;;;16.92;8.48;;;24.20;99.30;;;;;;5067434;28;20036;-69
2021/07/10 10:17:35;;;;;;;20.08;9.30;;;24.20;99.70;;;;;;5081983;28;20064;-70
2021/07/10 10:20:01;;;;;;;15.82;8.05;;;24.30;99.80;;;;;;5084890;28;20527;-70
2021/07/10 10:22:27;;;;;;;14.10;8.25;;;24.40;99.90;;;;;;5081102;28;20033;-73
2021/07/10 10:24:54;;;;;;;16.15;9.23;;;24.60;99.90;;;;;;5078690;28;20066;-73
2021/07/10 10:27:20;;;;;;;16.27;9.27;;;24.80;99.10;;;;;;5060583;28;20676;-71
2021/07/10 10:29:49;;;;;;;14.45;8.50;;;24.80;98.30;;;;;;5076126;28;20032;-71
2021/07/10 10:32:15;;;;;;;14.30;7.93;;;25.00;97.50;;;;;;5063323;28;20050;-73
2021/07/10 10:34:41;;;;;;;13.38;7.40;;;25.10;98.60;;;;;;5080019;28;20115;-73
2021/07/10 10:37:08;;;;;;;16.98;7.85;;;25.20;98.20;;;;;;5083825;28;20047;-73
2021/07/10 10:39:35;;;;;;;11.35;6.82;;;25.40;97.90;;;;;;5060867;28;20578;-73
2021/07/10 10:42:07;;;;;;;12.80;7.78;;;25.40;97.70;;;;;;5080363;28;20115;-73
2021/07/10 10:44:41;;;;;;;8.02;4.72;;;25.50;97.70;;;;;;5065958;28;20055;-71
2021/07/10 10:47:09;;;;;;;7.80;4.38;;;25.50;96.60;;;;;;5073483;28;20055;-71
2021/07/10 10:49:47;;;;;;;9.32;5.55;;;25.60;97.70;;;;;;5076318;28;20028;-74
2021/07/10 10:52:20;;;;;;;10.82;5.57;;;25.60;95.20;;;;;;5073344;28;20114;-71
2021/07/10 10:54:51;;;;;;;11.45;6.10;;;25.80;96.20;;;;;;5080702;28;20029;-72
2021/07/10 10:57:18;;;;;;;9.70;6.15;;;25.70;96.10;;;;;;5073830;28;20024;-72
2021/07/10 10:59:45;;;;;;;10.23;6.57;;;25.50;96.00;;;;;;5061180;28;20040;-71
2021/07/10 11:02:25;;;;;;;11.52;6.53;;;25.30;96.30;;;;;;5079371;28;20435;-73
2021/07/10 11:04:55;;;;;;;11.52;7.03;;;25.20;96.00;;;;;;5063627;28;20047;-73
2021/07/10 11:07:28;;;;;;;;;;;25.30;96.50;;;;;;5082727;28;20550;-72
2021/07/10 11:10:16;;;;;;;8.70;5.93;;;25.20;96.10;;;;;;5083821;28;19947;-71
2021/07/10 11:12:58;;;;;;;11.63;7.05;;;25.60;96.10;;;;;;5080512;28;20035;-71
2021/07/10 11:15:30;;;;;;;12.23;6.32;;;25.90;96.10;;;;;;5081913;28;20100;-73
2021/07/10 11:17:57;;;;;;;15.15;7.32;;;25.90;95.90;;;;;;5069595;28;20040;-73
2021/07/10 11:20:41;;;;;;;15.65;8.23;;;25.90;95.30;;;;;;5078002;28;20032;-72
2021/07/10 11:23:25;;;;;;;13.40;7.78;;;25.60;95.30;;;;;;5075479;28;20033;-73
2021/07/10 11:26:00;;;;;;;13.45;7.45;;;25.40;94.40;;;;;;5083190;28;20036;-73
2021/07/10 11:28:48;;;;;;;11.75;7.07;;;25.30;94.50;;;;;;5083351;28;20028;-73
2021/07/10 11:31:17;;;;;;;14.68;7.43;;;25.40;94.40;;;;;;5077206;28;20035;-73
2021/07/10 11:34:07;;;;;;;16.05;6.88;;;25.40;94.40;;;;;;5081207;28;20094;-72
2021/07/10 11:36:37;;;;;;;9.98;6.05;;;25.60;95.50;;;;;;5057761;28;20043;-71
2021/07/10 11:39:25;;;;;;;10.68;6.50;;;25.60;95.80;;;;;;5069386;28;20471;-73
2021/07/10 11:41:56;;;;;;;11.48;5.47;;;25.40;95.90;;;;;;5076971;28;20388;-72
2021/07/10 11:44:27;;;;;;;9.90;5.68;;;25.30;96.10;;;;;;5074120;28;20044;-73
2021/07/10 11:46:55;;;;;;;12.07;5.68;;;25.20;95.40;;;;;;5065605;28;20044;-72
2021/07/10 11:49:36;;;;;;;10.90;6.70;;;25.20;96.10;;;;;;5070875;28;20231;-72
2021/07/10 11:52:14;;;;;;;13.90;6.55;;;25.10;95.90;;;;;;5055883;28;20035;-73
2021/07/10 11:54:45;;;;;;;11.00;6.63;;;25.00;95.40;;;;;;5066842;28;20063;-73
2021/07/10 11:57:12;;;;;;;10.93;6.03;;;25.00;96.00;;;;;;5081308;28;20056;-72
2021/07/10 11:59:38;;;;;;;10.45;5.75;;;25.00;96.20;;;;;;5078916;28;20047;-73
2021/07/10 12:02:25;;;;;;;9.98;4.90;;;24.90;96.60;;;;;;5081409;28;20028;-73
2021/07/10 12:05:13;;;;;;;9.68;5.45;;;24.90;96.10;;;;;;5076352;28;20055;-72
2021/07/10 12:07:47;;;;;;;8.93;4.93;;;24.90;95.60;;;;;;5075459;28;20063;-73
2021/07/10 12:10:17;;;;;;;12.23;6.15;;;24.80;96.50;;;;;;5079323;28;20761;-73
2021/07/10 12:12:50;;;;;;;11.88;5.65;;;24.70;94.80;;;;;;5072398;28;20484;-73
2021/07/10 12:15:21;;;;;;;10.50;4.82;;;24.70;95.30;;;;;;5079929;28;20087;-72
2021/07/10 12:17:49;;;;;;;10.55;5.95;;;24.90;96.30;;;;;;5079298;28;20070;-72
2021/07/10 12:20:18;;;;;;;8.50;5.45;;;25.10;95.70;;;;;;5055297;28;20063;-72
2021/07/10 12:22:54;;;;;;;9.93;5.35;;;25.40;96.00;;;;;;5077452;28;20408;-72
2021/07/10 12:25:22;;;;;;;15.70;7.15;;;25.70;94.60;;;;;;5079720;28;20036;-72
2021/07/10 12:27:55;;;;;;;10.65;5.50;;;25.70;93.30;;;;;;5078164;28;20032;-72
2021/07/10 12:30:42;;;;;;;11.18;5.50;;;25.70;94.40;;;;;;5078292;28;20101;-73
2021/07/10 12:33:37;;;;;;;9.43;5.68;;;25.50;93.50;;;;;;5061018;28;20442;-73